sensor_id;sensor_type;location;lat;lon;timestamp;pressure;altitude;pressure_sealevel;temperature;humidity
6128;BME280;7073;42.672;23.256;2022-11-04T00:01:45;94519.34;;;10.47;92.60
6128;BME280;7073;42.672;23.256;2022-11-04T00:04:14;94519.09;;;10.55;91.73
6128;BME280;7073;42.672;23.256;2022-11-04T00:06:42;94523.00;;;10.39;92.46
6128;BME280;7073;42.672;23.256;2022-11-04T00:09:11;94521.88;;;10.54;92.03
6128;BME280;7073;42.672;23.256;2022-11-04T00:11:38;94517.66;;;10.59;92.20
6128;BME280;7073;42.672;23.256;2022-11-04T00:14:23;94516.25;;;10.25;93.07
6128;BME280;7073;42.672;23.256;2022-11-04T00:16:50;94517.72;;;10.15;94.17
6128;BME280;7073;42.672;23.256;2022-11-04T00:19:34;94505.59;;;9.89;94.82
6128;BME280;7073;42.672;23.256;2022-11-04T00:22:16;94514.97;;;10.03;95.08
6128;BME280;7073;42.672;23.256;2022-11-04T00:25:00;94513.81;;;10.30;94.35
6128;BME280;7073;42.672;23.256;2022-11-04T00:27:45;94521.28;;;10.20;94.39
6128;BME280;7073;42.672;23.256;2022-11-04T00:30:29;94497.75;;;9.96;95.41
6128;BME280;7073;42.672;23.256;2022-11-04T00:32:56;94490.06;;;9.76;95.88
6128;BME280;7073;42.672;23.256;2022-11-04T00:35:47;94512.13;;;10.11;96.09
6128;BME280;7073;42.672;23.256;2022-11-04T00:38:15;94517.09;;;10.19;95.46
6128;BME280;7073;42.672;23.256;2022-11-04T00:40:42;94494.66;;;10.12;95.62
6128;BME280;7073;42.672;23.256;2022-11-04T00:43:09;94501.75;;;10.42;94.90
6128;BME280;7073;42.672;23.256;2022-11-04T00:45:36;94502.88;;;10.22;94.60
6128;BME280;7073;42.672;23.256;2022-11-04T00:48:04;94495.19;;;10.33;94.56
6128;BME280;7073;42.672;23.256;2022-11-04T00:50:30;94496.59;;;9.85;95.81
6128;BME280;7073;42.672;23.256;2022-11-04T00:52:58;94495.78;;;9.91;96.44
6128;BME280;7073;42.672;23.256;2022-11-04T00:55:27;94493.19;;;9.91;96.58
6128;BME280;7073;42.672;23.256;2022-11-04T00:57:54;94485.41;;;9.84;96.76
6128;BME280;7073;42.672;23.256;2022-11-04T01:00:21;94493.47;;;9.70;97.31
6128;BME280;7073;42.672;23.256;2022-11-04T01:02:48;94488.88;;;9.65;97.78
6128;BME280;7073;42.672;23.256;2022-11-04T01:05:15;94483.34;;;9.55;98.29
6128;BME280;7073;42.672;23.256;2022-11-04T01:07:42;94477.44;;;9.79;98.47
6128;BME280;7073;42.672;23.256;2022-11-04T01:10:09;94492.47;;;9.71;97.97
6128;BME280;7073;42.672;23.256;2022-11-04T01:12:37;94481.31;;;9.64;98.38
6128;BME280;7073;42.672;23.256;2022-11-04T01:15:05;94468.09;;;9.59;98.86
6128;BME280;7073;42.672;23.256;2022-11-04T01:17:31;94473.81;;;9.80;98.92
6128;BME280;7073;42.672;23.256;2022-11-04T01:19:58;94467.69;;;9.68;98.69
6128;BME280;7073;42.672;23.256;2022-11-04T01:22:25;94458.84;;;9.76;98.66
6128;BME280;7073;42.672;23.256;2022-11-04T01:24:52;94467.31;;;10.03;97.75
6128;BME280;7073;42.672;23.256;2022-11-04T01:27:19;94463.16;;;9.89;97.09
6128;BME280;7073;42.672;23.256;2022-11-04T01:29:47;94464.66;;;9.71;97.66
6128;BME280;7073;42.672;23.256;2022-11-04T01:32:14;94462.25;;;9.76;98.24
6128;BME280;7073;42.672;23.256;2022-11-04T01:34:40;94462.91;;;9.59;98.61
6128;BME280;7073;42.672;23.256;2022-11-04T01:37:07;94439.00;;;9.31;99.57
6128;BME280;7073;42.672;23.256;2022-11-04T01:39:34;94460.16;;;9.41;99.90
6128;BME280;7073;42.672;23.256;2022-11-04T01:42:01;94437.84;;;9.20;100.00
6128;BME280;7073;42.672;23.256;2022-11-04T01:44:52;94465.00;;;9.31;100.00
6128;BME280;7073;42.672;23.256;2022-11-04T01:47:24;94460.97;;;9.48;100.00
6128;BME280;7073;42.672;23.256;2022-11-04T01:49:54;94464.69;;;9.65;100.00
6128;BME280;7073;42.672;23.256;2022-11-04T01:56:05;94459.03;;;9.23;100.00
6128;BME280;7073;42.672;23.256;2022-11-04T01:58:56;94460.56;;;9.51;100.00
6128;BME280;7073;42.672;23.256;2022-11-04T02:02:09;94443.44;;;9.23;100.00
6128;BME280;7073;42.672;23.256;2022-11-04T02:05:08;94452.25;;;9.09;100.00
6128;BME280;7073;42.672;23.256;2022-11-04T02:07:35;94452.00;;;9.37;100.00
6128;BME280;7073;42.672;23.256;2022-11-04T02:10:03;94453.34;;;9.46;100.00
6128;BME280;7073;42.672;23.256;2022-11-04T02:12:30;94449.75;;;9.41;100.00
6128;BME280;7073;42.672;23.256;2022-11-04T02:15:15;94444.56;;;9.47;100.00
6128;BME280;7073;42.672;23.256;2022-11-04T02:17:55;94445.22;;;9.30;100.00
6128;BME280;7073;42.672;23.256;2022-11-04T02:20:31;94441.41;;;9.26;100.00
6128;BME280;7073;42.672;23.256;2022-11-04T02:23:25;94424.97;;;9.45;100.00
6128;BME280;7073;42.672;23.256;2022-11-04T02:26:42;94437.66;;;9.21;100.00
6128;BME280;7073;42.672;23.256;2022-11-04T02:32:18;94440.97;;;9.35;100.00
6128;BME280;7073;42.672;23.256;2022-11-04T02:34:56;94432.63;;;9.20;100.00
6128;BME280;7073;42.672;23.256;2022-11-04T02:37:33;94427.75;;;9.43;100.00
6128;BME280;7073;42.672;23.256;2022-11-04T02:40:10;94428.72;;;9.55;100.00
6128;BME280;7073;42.672;23.256;2022-11-04T02:42:48;94433.06;;;9.61;100.00
6128;BME280;7073;42.672;23.256;2022-11-04T02:45:21;94432.44;;;9.72;99.16
6128;BME280;7073;42.672;23.256;2022-11-04T02:47:54;94440.75;;;9.50;99.26
6128;BME280;7073;42.672;23.256;2022-11-04T02:50:29;94443.47;;;9.04;100.00
6128;BME280;7073;42.672;23.256;2022-11-04T02:53:02;94426.69;;;9.00;100.00
6128;BME280;7073;42.672;23.256;2022-11-04T02:55:37;94430.22;;;9.32;100.00
6128;BME280;7073;42.672;23.256;2022-11-04T02:58:11;94440.56;;;9.45;100.00
6128;BME280;7073;42.672;23.256;2022-11-04T03:00:41;94434.03;;;9.22;100.00
6128;BME280;7073;42.672;23.256;2022-11-04T03:03:12;94427.97;;;9.35;100.00
6128;BME280;7073;42.672;23.256;2022-11-04T03:05:44;94433.41;;;9.34;100.00
6128;BME280;7073;42.672;23.256;2022-11-04T03:08:16;94436.72;;;8.90;100.00
6128;BME280;7073;42.672;23.256;2022-11-04T03:10:49;94434.88;;;9.16;100.00
6128;BME280;7073;42.672;23.256;2022-11-04T03:13:19;94433.88;;;9.04;100.00
6128;BME280;7073;42.672;23.256;2022-11-04T03:15:54;94423.31;;;8.86;100.00
6128;BME280;7073;42.672;23.256;2022-11-04T03:18:29;94435.13;;;8.82;100.00
6128;BME280;7073;42.672;23.256;2022-11-04T03:21:01;94427.16;;;8.57;100.00
6128;BME280;7073;42.672;23.256;2022-11-04T03:23:28;94434.13;;;8.70;100.00
6128;BME280;7073;42.672;23.256;2022-11-04T03:25:58;94427.78;;;8.53;100.00
6128;BME280;7073;42.672;23.256;2022-11-04T03:28:36;94423.56;;;8.65;100.00
6128;BME280;7073;42.672;23.256;2022-11-04T03:31:11;94433.72;;;8.80;100.00
6128;BME280;7073;42.672;23.256;2022-11-04T03:33:45;94434.31;;;8.88;100.00
6128;BME280;7073;42.672;23.256;2022-11-04T03:36:13;94435.31;;;8.81;100.00
6128;BME280;7073;42.672;23.256;2022-11-04T03:38:41;94435.88;;;8.96;100.00
6128;BME280;7073;42.672;23.256;2022-11-04T03:41:12;94429.66;;;9.16;100.00
6128;BME280;7073;42.672;23.256;2022-11-04T03:43:43;94427.47;;;9.13;100.00
6128;BME280;7073;42.672;23.256;2022-11-04T03:46:29;94423.09;;;9.07;100.00
6128;BME280;7073;42.672;23.256;2022-11-04T03:48:57;94429.09;;;8.88;100.00
6128;BME280;7073;42.672;23.256;2022-11-04T03:51:24;94429.31;;;8.80;100.00
6128;BME280;7073;42.672;23.256;2022-11-04T03:53:51;94426.94;;;8.59;100.00
6128;BME280;7073;42.672;23.256;2022-11-04T03:56:27;94426.53;;;8.62;100.00
6128;BME280;7073;42.672;23.256;2022-11-04T03:59:10;94424.34;;;8.79;100.00
6128;BME280;7073;42.672;23.256;2022-11-04T04:01:47;94428.53;;;8.86;100.00
6128;BME280;7073;42.672;23.256;2022-11-04T04:04:20;94425.72;;;8.75;100.00
6128;BME280;7073;42.672;23.256;2022-11-04T04:06:49;94425.16;;;8.53;100.00
6128;BME280;7073;42.672;23.256;2022-11-04T04:09:20;94420.97;;;8.65;100.00
6128;BME280;7073;42.672;23.256;2022-11-04T04:11:52;94426.94;;;8.59;100.00
6128;BME280;7073;42.672;23.256;2022-11-04T04:14:27;94421.75;;;8.46;100.00
6128;BME280;7073;42.672;23.256;2022-11-04T04:17:12;94422.78;;;8.45;100.00
6128;BME280;7073;42.672;23.256;2022-11-04T04:19:46;94404.97;;;8.16;100.00
6128;BME280;7073;42.672;23.256;2022-11-04T04:22:17;94418.38;;;8.52;100.00
6128;BME280;7073;42.672;23.256;2022-11-04T04:24:47;94420.19;;;8.58;100.00
6128;BME280;7073;42.672;23.256;2022-11-04T04:27:33;94418.97;;;8.74;100.00
6128;BME280;7073;42.672;23.256;2022-11-04T04:30:03;94420.94;;;8.78;100.00
6128;BME280;7073;42.672;23.256;2022-11-04T04:32:35;94421.31;;;8.88;100.00
6128;BME280;7073;42.672;23.256;2022-11-04T04:35:03;94423.53;;;8.78;100.00
6128;BME280;7073;42.672;23.256;2022-11-04T04:37:48;94412.78;;;8.35;100.00
6128;BME280;7073;42.672;23.256;2022-11-04T04:40:18;94414.38;;;8.30;100.00
6128;BME280;7073;42.672;23.256;2022-11-04T04:43:05;94409.59;;;8.33;100.00
6128;BME280;7073;42.672;23.256;2022-11-04T04:45:51;94411.56;;;8.38;100.00
6128;BME280;7073;42.672;23.256;2022-11-04T04:48:20;94418.38;;;8.58;100.00
6128;BME280;7073;42.672;23.256;2022-11-04T04:50:49;94420.72;;;8.86;100.00
6128;BME280;7073;42.672;23.256;2022-11-04T04:53:17;94423.75;;;8.57;100.00
6128;BME280;7073;42.672;23.256;2022-11-04T04:55:43;94422.16;;;8.43;100.00
6128;BME280;7073;42.672;23.256;2022-11-04T04:58:10;94425.38;;;8.32;100.00
6128;BME280;7073;42.672;23.256;2022-11-04T05:00:37;94430.72;;;8.24;100.00
6128;BME280;7073;42.672;23.256;2022-11-04T05:03:04;94425.97;;;8.47;100.00
6128;BME280;7073;42.672;23.256;2022-11-04T05:05:32;94422.94;;;8.24;100.00
6128;BME280;7073;42.672;23.256;2022-11-04T05:08:03;94420.56;;;8.42;100.00
6128;BME280;7073;42.672;23.256;2022-11-04T05:10:31;94405.63;;;8.37;100.00
6128;BME280;7073;42.672;23.256;2022-11-04T05:12:58;94425.97;;;8.60;100.00
6128;BME280;7073;42.672;23.256;2022-11-04T05:15:42;94423.75;;;8.31;100.00
6128;BME280;7073;42.672;23.256;2022-11-04T05:18:09;94423.09;;;8.09;100.00
6128;BME280;7073;42.672;23.256;2022-11-04T05:20:37;94422.53;;;8.00;100.00
6128;BME280;7073;42.672;23.256;2022-11-04T05:23:05;94414.78;;;8.40;100.00
6128;BME280;7073;42.672;23.256;2022-11-04T05:25:32;94428.97;;;8.64;100.00
6128;BME280;7073;42.672;23.256;2022-11-04T05:27:59;94433.34;;;8.50;100.00
6128;BME280;7073;42.672;23.256;2022-11-04T05:30:27;94437.31;;;8.59;100.00
6128;BME280;7073;42.672;23.256;2022-11-04T05:32:54;94441.13;;;8.56;100.00
6128;BME280;7073;42.672;23.256;2022-11-04T05:35:21;94448.13;;;8.49;100.00
6128;BME280;7073;42.672;23.256;2022-11-04T05:37:49;94446.94;;;8.52;100.00
6128;BME280;7073;42.672;23.256;2022-11-04T05:40:16;94452.13;;;8.65;100.00
6128;BME280;7073;42.672;23.256;2022-11-04T05:42:43;94446.31;;;8.76;100.00
6128;BME280;7073;42.672;23.256;2022-11-04T05:45:10;94457.88;;;8.80;100.00
6128;BME280;7073;42.672;23.256;2022-11-04T05:47:37;94461.47;;;8.86;100.00
6128;BME280;7073;42.672;23.256;2022-11-04T05:50:04;94447.31;;;8.82;100.00
6128;BME280;7073;42.672;23.256;2022-11-04T05:52:31;94460.56;;;9.38;100.00
6128;BME280;7073;42.672;23.256;2022-11-04T05:54:59;94457.28;;;9.62;100.00
6128;BME280;7073;42.672;23.256;2022-11-04T05:57:26;94463.88;;;9.71;100.00
6128;BME280;7073;42.672;23.256;2022-11-04T05:59:53;94459.19;;;9.86;100.00
6128;BME280;7073;42.672;23.256;2022-11-04T06:02:19;94435.34;;;9.89;100.00
6128;BME280;7073;42.672;23.256;2022-11-04T06:04:46;94461.81;;;10.24;100.00
6128;BME280;7073;42.672;23.256;2022-11-04T06:07:13;94461.41;;;10.20;100.00
6128;BME280;7073;42.672;23.256;2022-11-04T06:09:40;94466.75;;;10.63;100.00
6128;BME280;7073;42.672;23.256;2022-11-04T06:12:10;94460.47;;;10.95;99.74
6128;BME280;7073;42.672;23.256;2022-11-04T06:14:39;94458.16;;;10.81;98.43
6128;BME280;7073;42.672;23.256;2022-11-04T06:17:06;94464.88;;;10.95;99.27
6128;BME280;7073;42.672;23.256;2022-11-04T06:19:33;94464.78;;;11.01;97.31
6128;BME280;7073;42.672;23.256;2022-11-04T06:21:59;94467.91;;;11.35;96.98
6128;BME280;7073;42.672;23.256;2022-11-04T06:24:28;94462.00;;;11.39;95.35
6128;BME280;7073;42.672;23.256;2022-11-04T06:26:55;94471.88;;;11.37;94.68
6128;BME280;7073;42.672;23.256;2022-11-04T06:29:23;94465.13;;;11.84;93.48
6128;BME280;7073;42.672;23.256;2022-11-04T06:31:50;94474.72;;;11.90;92.19
6128;BME280;7073;42.672;23.256;2022-11-04T06:34:17;94459.19;;;11.95;91.74
6128;BME280;7073;42.672;23.256;2022-11-04T06:36:43;94467.69;;;11.73;92.69
6128;BME280;7073;42.672;23.256;2022-11-04T06:39:10;94469.56;;;11.84;92.89
6128;BME280;7073;42.672;23.256;2022-11-04T06:41:37;94475.06;;;11.94;93.02
6128;BME280;7073;42.672;23.256;2022-11-04T06:44:04;94475.06;;;11.94;93.79
6128;BME280;7073;42.672;23.256;2022-11-04T06:46:34;94475.41;;;11.97;94.08
6128;BME280;7073;42.672;23.256;2022-11-04T06:49:02;94473.34;;;11.88;94.17
6128;BME280;7073;42.672;23.256;2022-11-04T06:51:30;94477.78;;;11.99;94.19
6128;BME280;7073;42.672;23.256;2022-11-04T06:53:56;94473.34;;;11.88;94.53
6128;BME280;7073;42.672;23.256;2022-11-04T06:56:24;94458.22;;;12.49;93.20
6128;BME280;7073;42.672;23.256;2022-11-04T06:58:52;94469.09;;;12.46;92.05
6128;BME280;7073;42.672;23.256;2022-11-04T07:01:21;94452.75;;;12.39;91.42
6128;BME280;7073;42.672;23.256;2022-11-04T07:03:50;94467.47;;;12.86;90.76
6128;BME280;7073;42.672;23.256;2022-11-04T07:06:18;94467.59;;;12.27;92.59
6128;BME280;7073;42.672;23.256;2022-11-04T07:08:45;94459.41;;;12.76;91.66
6128;BME280;7073;42.672;23.256;2022-11-04T07:11:12;94432.53;;;12.46;90.41
6128;BME280;7073;42.672;23.256;2022-11-04T07:13:39;94454.66;;;12.85;90.45
6128;BME280;7073;42.672;23.256;2022-11-04T07:16:07;94457.81;;;12.99;89.84
6128;BME280;7073;42.672;23.256;2022-11-04T07:18:34;94453.53;;;13.27;87.52
6128;BME280;7073;42.672;23.256;2022-11-04T07:21:03;94452.56;;;12.64;89.70
6128;BME280;7073;42.672;23.256;2022-11-04T07:23:31;94440.34;;;13.11;89.17
6128;BME280;7073;42.672;23.256;2022-11-04T07:25:59;94437.94;;;13.09;88.40
6128;BME280;7073;42.672;23.256;2022-11-04T07:28:26;94445.81;;;13.32;88.42
6128;BME280;7073;42.672;23.256;2022-11-04T07:30:55;94441.09;;;13.46;86.11
6128;BME280;7073;42.672;23.256;2022-11-04T07:33:22;94435.31;;;13.44;85.07
6128;BME280;7073;42.672;23.256;2022-11-04T07:35:49;94403.94;;;13.32;84.00
6128;BME280;7073;42.672;23.256;2022-11-04T07:38:18;94434.06;;;13.86;83.20
6128;BME280;7073;42.672;23.256;2022-11-04T07:40:45;94426.09;;;13.81;82.42
6128;BME280;7073;42.672;23.256;2022-11-04T07:43:12;94434.19;;;13.40;83.04
6128;BME280;7073;42.672;23.256;2022-11-04T07:45:39;94432.56;;;14.19;80.22
6128;BME280;7073;42.672;23.256;2022-11-04T07:48:07;94431.25;;;14.04;81.28
6128;BME280;7073;42.672;23.256;2022-11-04T07:50:37;94433.59;;;14.18;79.81
6128;BME280;7073;42.672;23.256;2022-11-04T07:53:04;94429.47;;;13.93;80.21
6128;BME280;7073;42.672;23.256;2022-11-04T07:55:32;94428.91;;;13.91;80.72
6128;BME280;7073;42.672;23.256;2022-11-04T07:57:59;94425.63;;;14.41;78.25
6128;BME280;7073;42.672;23.256;2022-11-04T08:00:27;94430.03;;;14.24;78.45
6128;BME280;7073;42.672;23.256;2022-11-04T08:02:54;94422.22;;;14.57;77.46
6128;BME280;7073;42.672;23.256;2022-11-04T08:05:21;94429.22;;;14.35;77.94
6128;BME280;7073;42.672;23.256;2022-11-04T08:07:47;94382.66;;;14.42;77.80
6128;BME280;7073;42.672;23.256;2022-11-04T08:10:14;94424.38;;;14.60;75.31
6128;BME280;7073;42.672;23.256;2022-11-04T08:12:43;94415.16;;;15.07;75.03
6128;BME280;7073;42.672;23.256;2022-11-04T08:15:09;94413.00;;;15.04;76.40
6128;BME280;7073;42.672;23.256;2022-11-04T08:17:36;94411.56;;;15.52;73.23
6128;BME280;7073;42.672;23.256;2022-11-04T08:20:04;94414.66;;;15.27;72.99
6128;BME280;7073;42.672;23.256;2022-11-04T08:22:31;94405.84;;;15.55;73.32
6128;BME280;7073;42.672;23.256;2022-11-04T08:24:59;94407.38;;;15.72;72.19
6128;BME280;7073;42.672;23.256;2022-11-04T08:27:26;94394.53;;;15.76;72.96
6128;BME280;7073;42.672;23.256;2022-11-04T08:29:54;94405.03;;;15.98;71.53
6128;BME280;7073;42.672;23.256;2022-11-04T08:32:21;94394.13;;;16.11;68.60
6128;BME280;7073;42.672;23.256;2022-11-04T08:34:48;94392.25;;;16.33;69.01
6128;BME280;7073;42.672;23.256;2022-11-04T08:37:15;94389.44;;;16.18;69.25
6128;BME280;7073;42.672;23.256;2022-11-04T08:39:42;94384.03;;;15.76;69.18
6128;BME280;7073;42.672;23.256;2022-11-04T08:42:10;94384.09;;;16.61;66.96
6128;BME280;7073;42.672;23.256;2022-11-04T08:44:37;94382.06;;;16.46;66.92
6128;BME280;7073;42.672;23.256;2022-11-04T08:47:06;94381.34;;;16.78;65.52
6128;BME280;7073;42.672;23.256;2022-11-04T08:49:37;94383.91;;;16.14;66.99
6128;BME280;7073;42.672;23.256;2022-11-04T08:52:04;94386.38;;;16.52;66.38
6128;BME280;7073;42.672;23.256;2022-11-04T08:54:31;94386.53;;;16.73;64.17
6128;BME280;7073;42.672;23.256;2022-11-04T08:56:58;94375.47;;;16.71;64.61
6128;BME280;7073;42.672;23.256;2022-11-04T08:59:25;94374.03;;;17.37;62.65
6128;BME280;7073;42.672;23.256;2022-11-04T09:01:52;94375.53;;;17.69;60.78
6128;BME280;7073;42.672;23.256;2022-11-04T09:04:20;94375.41;;;18.26;60.42
6128;BME280;7073;42.672;23.256;2022-11-04T09:06:47;94373.03;;;18.25;58.75
6128;BME280;7073;42.672;23.256;2022-11-04T09:09:16;94365.38;;;18.33;58.54
6128;BME280;7073;42.672;23.256;2022-11-04T09:11:44;94359.34;;;18.38;58.83
6128;BME280;7073;42.672;23.256;2022-11-04T09:14:11;94365.38;;;18.33;57.47
6128;BME280;7073;42.672;23.256;2022-11-04T09:16:39;94355.59;;;17.99;58.85
6128;BME280;7073;42.672;23.256;2022-11-04T09:19:06;94355.63;;;18.34;57.61
6128;BME280;7073;42.672;23.256;2022-11-04T09:21:35;94345.59;;;18.41;57.79
6128;BME280;7073;42.672;23.256;2022-11-04T09:24:02;94346.13;;;18.88;56.91
6128;BME280;7073;42.672;23.256;2022-11-04T09:26:30;94348.41;;;19.50;53.72
6128;BME280;7073;42.672;23.256;2022-11-04T09:28:58;94345.56;;;19.17;55.78
6128;BME280;7073;42.672;23.256;2022-11-04T09:31:26;94346.56;;;20.00;52.88
6128;BME280;7073;42.672;23.256;2022-11-04T09:33:54;94341.94;;;19.77;53.10
6128;BME280;7073;42.672;23.256;2022-11-04T09:36:22;94326.97;;;20.06;51.76
6128;BME280;7073;42.672;23.256;2022-11-04T09:38:50;94334.25;;;20.63;51.36
6128;BME280;7073;42.672;23.256;2022-11-04T09:44:21;94325.81;;;21.18;49.63
6128;BME280;7073;42.672;23.256;2022-11-04T09:46:50;94315.72;;;20.92;49.92
6128;BME280;7073;42.672;23.256;2022-11-04T09:49:18;94306.94;;;20.96;49.83
6128;BME280;7073;42.672;23.256;2022-11-04T09:51:47;94301.56;;;21.96;47.50
6128;BME280;7073;42.672;23.256;2022-11-04T09:54:19;94311.28;;;22.89;45.51
6128;BME280;7073;42.672;23.256;2022-11-04T09:56:49;94300.53;;;21.50;46.83
6128;BME280;7073;42.672;23.256;2022-11-04T09:59:23;94295.19;;;21.73;47.36
6128;BME280;7073;42.672;23.256;2022-11-04T10:01:57;94291.19;;;20.52;49.49
6128;BME280;7073;42.672;23.256;2022-11-04T10:04:37;94284.38;;;21.27;48.88
6128;BME280;7073;42.672;23.256;2022-11-04T10:07:19;94266.41;;;22.23;45.75
6128;BME280;7073;42.672;23.256;2022-11-04T10:10:00;94281.25;;;22.75;43.67
6128;BME280;7073;42.672;23.256;2022-11-04T10:12:40;94273.50;;;22.27;44.60
6128;BME280;7073;42.672;23.256;2022-11-04T10:15:45;94256.19;;;22.30;42.98
6128;BME280;7073;42.672;23.256;2022-11-04T10:18:28;94268.03;;;19.57;49.47
6128;BME280;7073;42.672;23.256;2022-11-04T10:21:06;94263.78;;;19.99;49.44
6128;BME280;7073;42.672;23.256;2022-11-04T10:23:39;94256.19;;;20.84;48.57
6128;BME280;7073;42.672;23.256;2022-11-04T10:26:15;94243.03;;;20.17;49.16
6128;BME280;7073;42.672;23.256;2022-11-04T10:28:47;94243.53;;;20.52;49.53
6128;BME280;7073;42.672;23.256;2022-11-04T10:31:17;94239.78;;;21.72;47.16
6128;BME280;7073;42.672;23.256;2022-11-04T10:33:47;94232.34;;;21.74;46.93
6128;BME280;7073;42.672;23.256;2022-11-04T10:36:17;94226.69;;;21.19;48.13
6128;BME280;7073;42.672;23.256;2022-11-04T10:38:46;94220.44;;;22.41;46.02
6128;BME280;7073;42.672;23.256;2022-11-04T10:41:24;94216.91;;;22.78;44.78
6128;BME280;7073;42.672;23.256;2022-11-04T10:43:55;94200.94;;;22.64;44.58
6128;BME280;7073;42.672;23.256;2022-11-04T10:46:35;94209.13;;;23.08;43.93
6128;BME280;7073;42.672;23.256;2022-11-04T10:49:17;94185.75;;;23.33;42.81
6128;BME280;7073;42.672;23.256;2022-11-04T10:51:49;94197.91;;;22.84;42.55
6128;BME280;7073;42.672;23.256;2022-11-04T10:54:16;94188.66;;;21.85;45.46
6128;BME280;7073;42.672;23.256;2022-11-04T10:56:49;94178.31;;;22.34;44.74
6128;BME280;7073;42.672;23.256;2022-11-04T10:59:21;94171.75;;;22.45;43.91
6128;BME280;7073;42.672;23.256;2022-11-04T11:01:50;94175.25;;;22.87;43.87
6128;BME280;7073;42.672;23.256;2022-11-04T11:04:27;94165.19;;;23.52;42.39
6128;BME280;7073;42.672;23.256;2022-11-04T11:06:56;94170.28;;;24.06;40.71
6128;BME280;7073;42.672;23.256;2022-11-04T11:09:25;94163.06;;;23.85;41.22
6128;BME280;7073;42.672;23.256;2022-11-04T11:11:58;94163.81;;;24.21;40.82
6128;BME280;7073;42.672;23.256;2022-11-04T11:14:36;94150.69;;;23.80;41.58
6128;BME280;7073;42.672;23.256;2022-11-04T11:17:18;94146.31;;;23.84;41.26
6128;BME280;7073;42.672;23.256;2022-11-04T11:19:49;94155.84;;;24.52;40.33
6128;BME280;7073;42.672;23.256;2022-11-04T11:22:35;94133.25;;;24.80;39.75
6128;BME280;7073;42.672;23.256;2022-11-04T11:25:23;94124.84;;;25.04;38.85
6128;BME280;7073;42.672;23.256;2022-11-04T11:27:55;94123.09;;;24.90;38.42
6128;BME280;7073;42.672;23.256;2022-11-04T11:30:28;94121.13;;;25.22;37.73
6128;BME280;7073;42.672;23.256;2022-11-04T11:33:01;94109.81;;;24.29;39.01
6128;BME280;7073;42.672;23.256;2022-11-04T11:35:33;94099.13;;;23.76;40.08
6128;BME280;7073;42.672;23.256;2022-11-04T11:38:14;94099.19;;;24.07;39.79
6128;BME280;7073;42.672;23.256;2022-11-04T11:40:44;94097.34;;;24.38;38.97
6128;BME280;7073;42.672;23.256;2022-11-04T11:43:21;94089.16;;;24.34;39.28
6128;BME280;7073;42.672;23.256;2022-11-04T11:45:49;94094.94;;;25.15;37.93
6128;BME280;7073;42.672;23.256;2022-11-04T11:48:27;94074.25;;;24.25;39.11
6128;BME280;7073;42.672;23.256;2022-11-04T11:50:55;94078.69;;;24.07;39.73
6128;BME280;7073;42.672;23.256;2022-11-04T11:53:23;94071.22;;;23.29;41.03
6128;BME280;7073;42.672;23.256;2022-11-04T11:55:58;94055.63;;;23.14;42.38
6128;BME280;7073;42.672;23.256;2022-11-04T11:58:33;94067.50;;;23.30;41.18
6128;BME280;7073;42.672;23.256;2022-11-04T12:01:06;94059.38;;;23.13;41.66
6128;BME280;7073;42.672;23.256;2022-11-04T12:03:38;94054.72;;;22.01;43.71
6128;BME280;7073;42.672;23.256;2022-11-04T12:06:17;94044.50;;;21.62;44.75
6128;BME280;7073;42.672;23.256;2022-11-04T12:09:05;94045.97;;;22.14;44.08
6128;BME280;7073;42.672;23.256;2022-11-04T12:11:44;94048.13;;;22.39;42.86
6128;BME280;7073;42.672;23.256;2022-11-04T12:14:16;94044.41;;;22.40;43.28
6128;BME280;7073;42.672;23.256;2022-11-04T12:16:51;94058.75;;;22.39;42.45
6128;BME280;7073;42.672;23.256;2022-11-04T12:22:21;94052.81;;;22.97;42.07
6128;BME280;7073;42.672;23.256;2022-11-04T12:24:59;94038.06;;;22.91;41.96
6128;BME280;7073;42.672;23.256;2022-11-04T12:27:35;94041.31;;;22.88;42.03
6128;BME280;7073;42.672;23.256;2022-11-04T12:30:10;94041.75;;;22.54;41.98
6128;BME280;7073;42.672;23.256;2022-11-04T12:32:48;94023.16;;;21.86;43.49
6128;BME280;7073;42.672;23.256;2022-11-04T12:35:26;94041.81;;;21.94;43.96
6128;BME280;7073;42.672;23.256;2022-11-04T12:38:13;94036.53;;;22.08;43.84
6128;BME280;7073;42.672;23.256;2022-11-04T12:40:44;94028.09;;;22.33;42.50
6128;BME280;7073;42.672;23.256;2022-11-04T12:43:20;94041.97;;;22.30;43.28
6128;BME280;7073;42.672;23.256;2022-11-04T12:46:04;94020.75;;;21.84;43.53
6128;BME280;7073;42.672;23.256;2022-11-04T12:48:52;94028.00;;;22.11;43.27
6128;BME280;7073;42.672;23.256;2022-11-04T12:51:33;94031.63;;;22.15;42.75
6128;BME280;7073;42.672;23.256;2022-11-04T12:54:20;94017.34;;;21.98;43.32
6128;BME280;7073;42.672;23.256;2022-11-04T12:57:01;94019.34;;;21.73;43.57
6128;BME280;7073;42.672;23.256;2022-11-04T12:59:46;94014.06;;;21.60;44.80
6128;BME280;7073;42.672;23.256;2022-11-04T13:02:22;94017.84;;;21.54;43.91
6128;BME280;7073;42.672;23.256;2022-11-04T13:04:57;94024.66;;;21.27;44.32
6128;BME280;7073;42.672;23.256;2022-11-04T13:07:29;94001.03;;;21.12;44.65
6128;BME280;7073;42.672;23.256;2022-11-04T13:10:04;94019.13;;;21.05;45.13
6128;BME280;7073;42.672;23.256;2022-11-04T13:12:35;94016.34;;;20.59;45.87
6128;BME280;7073;42.672;23.256;2022-11-04T13:15:12;94021.44;;;20.93;45.58
6128;BME280;7073;42.672;23.256;2022-11-04T13:17:42;94010.75;;;20.80;45.34
6128;BME280;7073;42.672;23.256;2022-11-04T13:20:18;94024.22;;;21.02;45.11
6128;BME280;7073;42.672;23.256;2022-11-04T13:22:49;94025.13;;;20.92;45.37
6128;BME280;7073;42.672;23.256;2022-11-04T13:25:23;94005.69;;;20.64;46.38
6128;BME280;7073;42.672;23.256;2022-11-04T13:27:53;94009.28;;;21.43;44.77
6128;BME280;7073;42.672;23.256;2022-11-04T13:30:22;94018.66;;;22.14;43.32
6128;BME280;7073;42.672;23.256;2022-11-04T13:32:57;94028.56;;;22.63;41.82
6128;BME280;7073;42.672;23.256;2022-11-04T13:35:29;94021.13;;;22.65;41.82
6128;BME280;7073;42.672;23.256;2022-11-04T13:38:02;94017.25;;;22.71;40.84
6128;BME280;7073;42.672;23.256;2022-11-04T13:40:35;94020.28;;;21.50;43.40
6128;BME280;7073;42.672;23.256;2022-11-04T13:43:18;93995.88;;;21.67;43.16
6128;BME280;7073;42.672;23.256;2022-11-04T13:46:17;94015.72;;;22.02;44.03
6128;BME280;7073;42.672;23.256;2022-11-04T13:48:59;93995.63;;;21.50;44.20
6128;BME280;7073;42.672;23.256;2022-11-04T13:51:44;94003.59;;;21.50;44.28